West Yellowstone, Montana
Current Conditions -  °F | °C
As of 10:28 AM on Friday 19 Dec 2014 (Local Time) from KDIJ Reporting Station
Light Snow Light Snow  
Wind Chill: 24°   Ceiling: 2800
Heat Index: 30°   Visibility: 4mi
Dew Point: 27°   Wind: 6mph
Humidity: 86%   Direction: 160°SSE
Pressure: 30.13"   Gusts: NA
Location:  44.66°N, 111.1°W
Report Text: KDIJ 191728Z AUTO 16005KT 4SM -SN FEW001 SCT016 BKN028 M01/M03 A3013 RMK AO2 UPE25SNB23E24B25 P0000
Loading
Personal Weather Stations






























Interactive Weather Map New forecast layout! Learn more

10-Day Weather Forecast

Advertisements
Track Severe Weather on mobile